createdAt,value
2018-06-02T00:02:01.696Z,15.40
2018-06-02T00:04:30.069Z,15.40
2018-06-02T00:06:57.696Z,15.40
2018-06-02T00:09:26.291Z,15.40
2018-06-02T00:11:53.924Z,15.30
2018-06-02T00:14:21.540Z,15.20
2018-06-02T00:16:50.549Z,15.30
2018-06-02T00:19:18.934Z,15.30
2018-06-02T00:21:46.559Z,15.30
2018-06-02T00:24:14.168Z,15.30
2018-06-02T00:26:41.748Z,15.30
2018-06-02T00:29:09.349Z,15.30
2018-06-02T00:31:36.961Z,15.20
2018-06-02T00:34:04.580Z,15.20
2018-06-02T00:36:32.953Z,15.10
2018-06-02T00:39:01.330Z,15.10
2018-06-02T00:41:29.699Z,15.10
2018-06-02T00:43:57.330Z,15.00
2018-06-02T00:46:24.915Z,15.00
2018-06-02T00:48:52.513Z,15.00
2018-06-02T00:51:21.040Z,15.00
2018-06-02T00:53:48.639Z,15.00
2018-06-02T00:56:17.040Z,14.90
2018-06-02T00:58:44.653Z,14.90
2018-06-02T01:01:12.281Z,15.00
2018-06-02T01:03:39.899Z,15.00
2018-06-02T01:06:08.360Z,15.00
2018-06-02T01:08:36.080Z,15.00
2018-06-02T01:11:03.742Z,15.00
2018-06-02T01:13:31.355Z,14.90
2018-06-02T01:15:59.739Z,15.00
2018-06-02T01:18:28.335Z,14.90
2018-06-02T01:20:56.070Z,14.90
2018-06-02T01:23:23.600Z,14.80
2018-06-02T01:25:51.200Z,14.80
2018-06-02T01:28:19.561Z,14.60
2018-06-02T01:30:47.149Z,14.60
2018-06-02T01:33:14.840Z,14.50
2018-06-02T01:35:43.181Z,14.50
2018-06-02T01:38:11.568Z,14.40
2018-06-02T01:40:39.140Z,14.40
2018-06-02T01:43:07.510Z,14.20
2018-06-02T01:45:35.141Z,14.30
2018-06-02T01:48:03.648Z,14.20
2018-06-02T01:50:31.279Z,14.20
2018-06-02T01:52:59.848Z,14.20
2018-06-02T01:55:27.429Z,14.10
2018-06-02T01:57:55.800Z,14.10
2018-06-02T02:00:24.189Z,14.10
2018-06-02T02:02:52.569Z,14.10
2018-06-02T02:05:20.937Z,14.00
2018-06-02T02:07:49.336Z,14.00
2018-06-02T02:10:16.928Z,14.00
2018-06-02T02:12:44.540Z,13.90
2018-06-02T02:15:12.915Z,13.90
2018-06-02T02:17:41.271Z,13.90
2018-06-02T02:20:08.890Z,13.80
2018-06-02T02:22:37.260Z,13.90
2018-06-02T02:25:05.649Z,13.90
2018-06-02T02:27:33.281Z,13.90
2018-06-02T02:30:01.705Z,13.90
2018-06-02T02:32:29.335Z,13.80
2018-06-02T02:34:56.946Z,13.90
2018-06-02T02:37:24.576Z,13.90
2018-06-02T02:39:52.933Z,13.90
2018-06-02T02:42:20.516Z,13.90
2018-06-02T02:44:48.136Z,13.90
2018-06-02T02:47:16.479Z,14.00
2018-06-02T02:49:45.149Z,13.90
2018-06-02T02:52:13.994Z,14.00
2018-06-02T02:54:41.589Z,13.90
2018-06-02T02:57:09.219Z,13.80
2018-06-02T02:59:36.839Z,13.80
2018-06-02T03:02:04.479Z,13.80
2018-06-02T03:04:32.094Z,13.70
2018-06-02T03:06:59.721Z,13.70
2018-06-02T03:09:27.349Z,13.60
2018-06-02T03:11:54.969Z,13.60
2018-06-02T03:14:23.369Z,13.70
2018-06-02T03:16:50.976Z,13.70
2018-06-02T03:19:18.569Z,13.70
2018-06-02T03:21:46.919Z,13.70
2018-06-02T03:24:14.576Z,13.70
2018-06-02T03:26:42.198Z,13.70
2018-06-02T03:29:09.829Z,13.70
2018-06-02T03:31:38.209Z,13.70
2018-06-02T03:34:05.829Z,13.70
2018-06-02T03:36:33.460Z,13.70
2018-06-02T03:39:01.076Z,13.70
2018-06-02T03:41:29.441Z,13.80
2018-06-02T03:43:57.076Z,13.80
2018-06-02T03:46:24.676Z,13.80
2018-06-02T03:48:53.030Z,13.80
2018-06-02T03:51:20.677Z,13.80
2018-06-02T03:53:48.269Z,13.80
2018-06-02T03:56:16.605Z,13.70
2018-06-02T03:58:44.207Z,13.70
2018-06-02T04:01:12.578Z,13.70
2018-06-02T04:03:41.009Z,13.70
2018-06-02T04:06:08.590Z,13.70
2018-06-02T04:08:36.189Z,13.70
2018-06-02T04:11:04.559Z,13.50
2018-06-02T04:13:32.938Z,13.40
2018-06-02T04:16:01.325Z,13.40
2018-06-02T04:18:29.699Z,13.40
2018-06-02T04:20:58.081Z,13.40
2018-06-02T04:23:26.429Z,13.30
2018-06-02T04:25:54.029Z,13.30
2018-06-02T04:28:21.649Z,13.30
2018-06-02T04:30:49.259Z,13.30
2018-06-02T04:33:16.877Z,13.30
2018-06-02T04:35:44.449Z,13.20
2018-06-02T04:38:12.859Z,13.20
2018-06-02T04:40:40.460Z,13.20
2018-06-02T04:43:08.159Z,13.20
2018-06-02T04:45:36.509Z,13.30
2018-06-02T04:48:04.115Z,13.30
2018-06-02T04:50:32.062Z,13.60
2018-06-02T04:53:00.427Z,13.60
2018-06-02T04:55:28.822Z,13.80
2018-06-02T04:57:57.209Z,14.00
2018-06-02T05:00:25.749Z,14.00
2018-06-02T05:02:54.116Z,14.30
2018-06-02T05:05:21.701Z,14.50
2018-06-02T05:07:50.069Z,14.70
2018-06-02T05:10:17.711Z,14.70
2018-06-02T05:12:45.308Z,15.10
2018-06-02T05:15:13.735Z,15.50
2018-06-02T05:17:42.940Z,15.60
2018-06-02T05:20:10.631Z,15.60
2018-06-02T05:22:39.079Z,16.00
2018-06-02T05:25:07.640Z,16.00
2018-06-02T05:27:35.235Z,16.20
2018-06-02T05:32:15.230Z,16.30
2018-06-02T05:34:43.624Z,16.00
2018-06-02T05:37:11.219Z,16.00
2018-06-02T05:39:38.821Z,15.80
2018-06-02T05:42:07.196Z,15.60
2018-06-02T05:44:35.587Z,15.50
2018-06-02T05:47:03.971Z,15.50
2018-06-02T05:49:31.568Z,15.50
2018-06-02T05:51:59.224Z,15.40
2018-06-02T05:54:26.795Z,15.40
2018-06-02T05:56:54.448Z,15.30
2018-06-02T05:59:22.029Z,15.40
2018-06-02T06:01:49.674Z,15.40
2018-06-02T06:04:17.268Z,15.40
2018-06-02T06:06:44.892Z,15.50
2018-06-02T06:09:12.500Z,15.50
2018-06-02T06:11:40.845Z,15.70
2018-06-02T06:14:08.449Z,15.70
2018-06-02T06:16:36.029Z,15.80
2018-06-02T06:19:03.609Z,15.80
2018-06-02T06:21:31.189Z,16.00
2018-06-02T06:23:58.784Z,16.00
2018-06-02T06:26:27.204Z,16.10
2018-06-02T06:28:54.835Z,16.10
2018-06-02T06:32:49.341Z,17.40
2018-06-02T06:35:16.939Z,17.40
2018-06-02T06:37:45.174Z,17.30
2018-06-02T06:40:12.836Z,17.20
2018-06-02T06:42:40.417Z,17.00
2018-06-02T06:45:08.000Z,16.90
2018-06-02T06:47:35.608Z,16.80
2018-06-02T06:50:05.150Z,16.80
2018-06-02T06:52:34.500Z,16.80
2018-06-02T06:55:04.619Z,17.00
2018-06-02T06:57:32.370Z,16.90
2018-06-02T07:00:00.789Z,17.00
2018-06-02T07:02:28.380Z,17.00
2018-06-02T07:04:55.989Z,17.10
2018-06-02T07:07:23.609Z,17.10
2018-06-02T07:09:51.189Z,17.20
2018-06-02T07:12:19.596Z,17.30
2018-06-02T07:14:47.190Z,17.30
2018-06-02T07:17:14.775Z,17.30
2018-06-02T07:19:42.429Z,17.30
2018-06-02T07:22:11.005Z,17.40
2018-06-02T07:24:40.090Z,17.50
2018-06-02T07:27:07.931Z,17.50
2018-06-02T07:29:35.542Z,17.60
2018-06-02T07:32:03.905Z,17.80
2018-06-02T07:34:31.503Z,17.80
2018-06-02T07:36:59.121Z,17.90
2018-06-02T07:39:26.709Z,17.90
2018-06-02T07:41:55.100Z,18.00
2018-06-02T07:44:22.705Z,18.00
2018-06-02T07:46:50.309Z,18.00
2018-06-02T07:49:18.710Z,18.10
2018-06-02T07:51:46.325Z,18.10
2018-06-02T07:54:13.961Z,18.20
2018-06-02T07:56:41.579Z,18.30
2018-06-02T07:59:09.220Z,18.30
2018-06-02T08:01:37.620Z,18.40
2018-06-02T08:04:05.729Z,18.40
2018-06-02T08:06:33.380Z,18.50
2018-06-02T08:09:00.991Z,18.50
2018-06-02T08:11:29.362Z,18.60
2018-06-02T08:13:56.979Z,18.60
2018-06-02T08:16:24.581Z,18.70
2018-06-02T08:18:52.945Z,18.80
2018-06-02T08:21:20.558Z,18.80
2018-06-02T08:23:48.151Z,18.90
2018-06-02T08:26:15.839Z,18.90
2018-06-02T08:28:44.227Z,19.00
2018-06-02T08:31:12.679Z,19.10
2018-06-02T08:33:40.383Z,19.10
2018-06-02T08:36:08.751Z,19.20
2018-06-02T08:38:37.146Z,19.30
2018-06-02T08:41:04.840Z,19.30
2018-06-02T08:43:32.488Z,19.40
2018-06-02T08:46:00.135Z,19.40
2018-06-02T08:48:27.781Z,19.50
2018-06-02T08:50:56.333Z,19.60
2018-06-02T08:53:24.056Z,19.60
2018-06-02T08:55:51.921Z,19.70
2018-06-02T08:58:19.617Z,19.70
2018-06-02T09:00:47.241Z,19.80
2018-06-02T09:03:14.889Z,19.90
2018-06-02T09:05:42.554Z,19.90
2018-06-02T09:08:10.156Z,20.00
2018-06-02T09:10:37.800Z,20.10
2018-06-02T09:13:05.392Z,20.20
2018-06-02T09:15:33.042Z,20.30
2018-06-02T09:18:00.630Z,20.30
2018-06-02T09:20:28.965Z,20.60
2018-06-02T09:22:56.562Z,20.60
2018-06-02T09:25:24.986Z,20.80
2018-06-02T09:27:52.899Z,20.80
2018-06-02T09:30:21.286Z,21.00
2018-06-02T09:32:49.644Z,21.10
2018-06-02T09:35:17.398Z,21.10
2018-06-02T09:37:45.000Z,21.20
2018-06-02T09:40:12.648Z,21.30
2018-06-02T09:42:41.059Z,21.40
2018-06-02T09:45:08.696Z,21.40
2018-06-02T09:47:37.092Z,21.60
2018-06-02T09:50:05.492Z,21.60
2018-06-02T09:52:33.120Z,21.70
2018-06-02T09:55:00.725Z,21.80
2018-06-02T09:57:28.351Z,21.90
2018-06-02T09:59:55.999Z,21.90
2018-06-02T10:02:23.584Z,22.10
2018-06-02T10:04:51.188Z,22.20
2018-06-02T10:07:18.860Z,22.20
2018-06-02T10:09:47.216Z,22.40
2018-06-02T10:12:14.844Z,22.40
2018-06-02T10:14:42.712Z,22.50
2018-06-02T10:17:10.348Z,22.60
2018-06-02T10:19:37.959Z,22.60
2018-06-02T10:22:05.539Z,22.70
2018-06-02T10:24:33.936Z,22.90
2018-06-02T10:27:01.530Z,22.90
2018-06-02T10:29:29.178Z,23.00
2018-06-02T10:31:56.791Z,23.10
2018-06-02T10:34:24.374Z,23.10
2018-06-02T10:36:51.970Z,23.20
2018-06-02T10:39:19.567Z,23.20
2018-06-02T10:41:47.203Z,23.30
2018-06-02T10:44:14.799Z,23.40
2018-06-02T10:46:43.171Z,23.50
2018-06-02T10:49:11.677Z,23.60
2018-06-02T10:52:14.906Z,23.70
2018-06-02T10:54:42.486Z,23.80
2018-06-02T10:57:10.103Z,23.90
2018-06-02T10:59:37.723Z,24.00
2018-06-02T11:02:05.531Z,24.00
2018-06-02T11:04:33.130Z,24.10
2018-06-02T11:07:00.779Z,24.20
2018-06-02T11:09:28.385Z,24.30
2018-06-02T11:11:56.747Z,24.40
2018-06-02T11:14:25.559Z,24.50
2018-06-02T11:16:53.139Z,24.40
2018-06-02T11:19:20.721Z,24.50
2018-06-02T11:21:48.330Z,24.60
2018-06-02T11:24:16.693Z,24.60
2018-06-02T11:26:45.075Z,24.70
2018-06-02T11:29:13.450Z,24.80
2018-06-02T11:31:41.829Z,25.00
2018-06-02T11:34:10.250Z,25.10
2018-06-02T11:36:37.883Z,25.00
2018-06-02T11:39:06.255Z,25.40
2018-06-02T11:41:34.647Z,25.50
2018-06-02T11:44:02.276Z,25.50
2018-06-02T11:46:30.680Z,25.70
2018-06-02T11:48:58.312Z,25.70
2018-06-02T11:51:25.919Z,25.80
2018-06-02T11:53:53.549Z,25.90
2018-06-02T11:56:21.958Z,26.00
2018-06-02T11:58:49.579Z,26.00
2018-06-02T12:01:17.920Z,26.20
2018-06-02T12:03:45.500Z,26.20
2018-06-02T12:06:13.121Z,26.30
2018-06-02T12:08:40.766Z,26.30
2018-06-02T12:11:08.400Z,26.40
2018-06-02T12:13:36.764Z,26.60
2018-06-02T12:16:04.388Z,26.60
2018-06-02T12:18:31.990Z,26.70
2018-06-02T12:20:59.630Z,26.70
2018-06-02T12:23:27.220Z,26.90
2018-06-02T12:25:55.599Z,27.00
2018-06-02T12:28:24.019Z,27.00
2018-06-02T12:30:51.599Z,27.00
2018-06-02T12:33:19.240Z,27.10
2018-06-02T12:35:46.838Z,27.10
2018-06-02T12:38:14.440Z,27.10
2018-06-02T12:40:42.080Z,27.20
2018-06-02T12:43:10.472Z,27.20
2018-06-02T12:45:38.098Z,27.20
2018-06-02T12:48:05.716Z,27.30
2018-06-02T12:50:33.322Z,27.40
2018-06-02T12:53:00.976Z,27.50
2018-06-02T12:55:28.563Z,27.50
2018-06-02T12:57:56.940Z,27.70
2018-06-02T13:00:25.324Z,27.70
2018-06-02T13:02:52.917Z,27.70
2018-06-02T13:05:20.570Z,27.80
2018-06-02T13:07:48.183Z,27.90
2018-06-02T13:10:15.820Z,28.00
2018-06-02T13:12:43.455Z,28.00
2018-06-02T13:15:11.121Z,28.10
2018-06-02T13:17:38.737Z,28.10
2018-06-02T13:20:07.150Z,28.00
2018-06-02T13:22:34.780Z,28.00
2018-06-02T13:25:04.750Z,27.80
2018-06-02T13:27:32.362Z,27.80
2018-06-02T13:29:59.989Z,27.60
2018-06-02T13:32:27.600Z,27.50
2018-06-02T13:34:57.390Z,27.30
2018-06-02T13:37:25.099Z,27.20
2018-06-02T13:39:52.773Z,27.10
2018-06-02T13:42:20.389Z,27.10
2018-06-02T13:44:48.171Z,27.00
2018-06-02T13:47:15.813Z,26.90
2018-06-02T13:49:43.417Z,26.80
2018-06-02T13:52:11.060Z,26.70
2018-06-02T13:54:39.477Z,26.60
2018-06-02T13:57:07.561Z,26.50
2018-06-02T13:59:36.190Z,26.30
2018-06-02T14:02:06.032Z,26.20
2018-06-02T14:04:33.779Z,26.20
2018-06-02T14:07:01.412Z,26.00
2018-06-02T14:09:29.181Z,25.90
2018-06-02T14:11:57.710Z,25.30
2018-06-02T14:14:26.208Z,24.80
2018-06-02T14:16:55.847Z,24.50
2018-06-02T14:19:23.600Z,24.50
2018-06-02T14:21:51.326Z,24.20
2018-06-02T14:24:19.845Z,23.60
2018-06-02T14:26:48.240Z,23.50
2018-06-02T14:29:15.840Z,23.30
2018-06-02T14:31:43.470Z,23.00
2018-06-02T14:34:11.080Z,22.80
2018-06-02T14:36:40.730Z,22.00
2018-06-02T14:39:08.449Z,22.00
2018-06-02T14:41:37.015Z,21.50
2018-06-02T14:44:05.001Z,21.50
2018-06-02T14:46:33.543Z,21.20
2018-06-02T14:49:01.938Z,21.20
2018-06-02T14:51:29.535Z,21.10
2018-06-02T14:53:57.223Z,20.90
2018-06-02T14:56:24.850Z,20.90
2018-06-02T14:58:53.214Z,20.60
2018-06-02T15:01:21.578Z,20.50
2018-06-02T15:03:49.529Z,20.50
2018-06-02T15:06:17.117Z,20.50
2018-06-02T15:08:45.496Z,20.30
2018-06-02T15:11:13.926Z,20.20
2018-06-02T15:13:41.537Z,20.10
2018-06-02T15:16:09.930Z,20.10
2018-06-02T15:18:37.553Z,20.10
2018-06-02T15:21:05.219Z,20.10
2018-06-02T15:23:32.870Z,20.00
2018-06-02T15:26:00.511Z,20.00
2018-06-02T15:28:28.167Z,19.90
2018-06-02T15:30:55.799Z,19.80
2018-06-02T15:33:23.390Z,19.70
2018-06-02T15:35:50.990Z,19.60
2018-06-02T15:38:18.611Z,19.50
2018-06-02T15:40:46.249Z,19.50
2018-06-02T15:43:14.630Z,19.30
2018-06-02T15:45:42.213Z,19.20
2018-06-02T15:48:09.886Z,19.20
2018-06-02T15:50:37.737Z,19.10
2018-06-02T15:53:05.412Z,19.00
2018-06-02T15:55:33.016Z,18.90
2018-06-02T15:58:01.402Z,18.70
2018-06-02T16:00:28.977Z,18.60
2018-06-02T16:02:56.609Z,18.60
2018-06-02T16:05:25.176Z,18.60
2018-06-02T16:07:52.779Z,18.60
2018-06-02T16:10:20.359Z,18.60
2018-06-02T16:12:48.019Z,18.60
2018-06-02T16:15:15.642Z,18.70
2018-06-02T16:17:43.338Z,18.70
2018-06-02T16:20:10.941Z,18.70
2018-06-02T16:22:38.580Z,18.70
2018-06-02T16:25:06.210Z,18.80
2018-06-02T16:27:33.840Z,18.90
2018-06-02T16:30:01.466Z,18.90
2018-06-02T16:32:29.069Z,19.00
2018-06-02T16:34:56.658Z,19.00
2018-06-02T16:37:24.279Z,19.00
2018-06-02T16:39:52.018Z,19.00
2018-06-02T16:42:19.629Z,19.00
2018-06-02T16:44:47.964Z,19.00
2018-06-02T16:47:17.292Z,19.10
2018-06-02T16:49:44.932Z,19.10
2018-06-02T16:52:13.400Z,19.10
2018-06-02T16:54:41.008Z,19.10
2018-06-02T16:57:08.719Z,19.10
2018-06-02T16:59:37.194Z,18.90
2018-06-02T17:02:04.844Z,18.90
2018-06-02T17:04:32.518Z,18.90
2018-06-02T17:07:00.296Z,18.90
2018-06-02T17:09:28.690Z,18.70
2018-06-02T17:11:56.427Z,18.60
2018-06-02T17:14:24.959Z,18.60
2018-06-02T17:16:52.613Z,18.50
2018-06-02T17:19:20.262Z,18.50
2018-06-02T17:21:47.879Z,18.50
2018-06-02T17:24:15.508Z,18.40
2018-06-02T17:26:43.118Z,18.30
2018-06-02T17:29:11.506Z,18.30
2018-06-02T17:31:39.880Z,18.30
2018-06-02T17:34:08.247Z,18.30
2018-06-02T17:36:35.933Z,18.30
2018-06-02T17:39:03.604Z,18.30
2018-06-02T17:41:31.224Z,18.20
2018-06-02T17:43:58.830Z,18.20
2018-06-02T17:46:26.820Z,18.20
2018-06-02T17:48:54.459Z,18.20
2018-06-02T17:51:22.069Z,18.20
2018-06-02T17:53:49.670Z,18.30
2018-06-02T17:56:17.300Z,18.30
2018-06-02T17:58:45.718Z,18.40
2018-06-02T18:01:13.348Z,18.40
2018-06-02T18:03:41.739Z,18.50
2018-06-02T18:06:09.360Z,18.50
2018-06-02T18:08:37.001Z,18.50
2018-06-02T18:11:04.609Z,18.60
2018-06-02T18:13:33.050Z,18.60
2018-06-02T18:16:00.647Z,18.60
2018-06-02T18:18:29.005Z,18.60
2018-06-02T18:21:00.012Z,18.50
2018-06-02T18:23:27.596Z,18.50
2018-06-02T18:25:55.247Z,18.60
2018-06-02T18:28:22.873Z,18.50
2018-06-02T18:30:50.503Z,18.50
2018-06-02T18:33:18.872Z,18.50
2018-06-02T18:35:47.226Z,18.50
2018-06-02T18:38:14.853Z,18.50
2018-06-02T18:40:42.452Z,18.40
2018-06-02T18:43:10.055Z,18.40
2018-06-02T18:45:37.674Z,18.50
2018-06-02T18:48:05.591Z,18.50
2018-06-02T18:50:33.259Z,18.50
2018-06-02T18:53:00.899Z,18.50
2018-06-02T18:55:29.274Z,18.40
2018-06-02T18:57:57.631Z,18.30
2018-06-02T19:00:25.327Z,18.30
2018-06-02T19:02:52.937Z,18.30
2018-06-02T19:05:20.559Z,18.30
2018-06-02T19:07:48.174Z,18.10
2018-06-02T19:10:16.539Z,18.10
2018-06-02T19:12:44.120Z,18.00
2018-06-02T19:15:12.490Z,18.00
2018-06-02T19:17:40.839Z,18.00
2018-06-02T19:20:08.441Z,18.00
2018-06-02T19:22:36.837Z,18.00
2018-06-02T19:25:04.970Z,18.00
2018-06-02T19:27:33.393Z,18.00
2018-06-02T19:30:00.981Z,18.00
2018-06-02T19:32:29.403Z,18.00
2018-06-02T19:34:58.014Z,18.00
2018-06-02T19:37:25.648Z,18.00
2018-06-02T19:39:54.000Z,18.00
2018-06-02T19:42:21.625Z,18.00
2018-06-02T19:44:49.235Z,17.90
2018-06-02T19:47:17.716Z,17.80
2018-06-02T19:49:46.108Z,17.90
2018-06-02T19:52:14.474Z,17.80
2018-06-02T19:54:42.878Z,17.80
2018-06-02T19:57:10.501Z,17.80
2018-06-02T19:59:38.116Z,17.80
2018-06-02T20:02:05.730Z,17.80
2018-06-02T20:04:33.348Z,17.80
2018-06-02T20:07:00.934Z,17.80
2018-06-02T20:09:28.555Z,17.70
2018-06-02T20:14:31.209Z,17.60
2018-06-02T20:16:59.670Z,17.60
2018-06-02T20:19:27.344Z,17.60
2018-06-02T20:21:55.007Z,17.60
2018-06-02T20:24:22.684Z,17.60
2018-06-02T20:26:53.963Z,17.60
2018-06-02T20:29:21.849Z,17.50
2018-06-02T20:31:49.490Z,17.40
2018-06-02T20:34:17.160Z,17.40
2018-06-02T20:36:44.780Z,17.40
2018-06-02T20:39:12.386Z,17.40
2018-06-02T20:41:40.009Z,17.40
2018-06-02T20:44:07.670Z,17.40
2018-06-02T20:46:35.271Z,17.30
2018-06-02T20:49:02.939Z,17.30
2018-06-02T20:51:30.539Z,17.30
2018-06-02T20:53:58.939Z,17.30
2018-06-02T20:56:26.521Z,17.30
2018-06-02T20:58:54.272Z,17.30
2018-06-02T21:01:21.869Z,17.30
2018-06-02T21:03:49.498Z,17.30
2018-06-02T21:06:17.129Z,17.20
2018-06-02T21:08:44.719Z,17.00
2018-06-02T21:11:12.326Z,17.00
2018-06-02T21:13:40.725Z,17.10
2018-06-02T21:16:08.351Z,17.00
2018-06-02T21:18:35.986Z,17.10
2018-06-02T21:21:03.629Z,17.00
2018-06-02T21:23:31.239Z,17.10
2018-06-02T21:25:58.851Z,17.00
2018-06-02T21:28:26.466Z,16.90
2018-06-02T21:30:54.866Z,16.70
2018-06-02T21:33:22.816Z,16.70
2018-06-02T21:35:51.210Z,16.60
2018-06-02T21:38:19.743Z,16.70
2018-06-02T21:40:47.370Z,16.70
2018-06-02T21:43:19.260Z,16.70
2018-06-02T21:45:51.431Z,16.70
2018-06-02T21:48:19.250Z,16.70
2018-06-02T21:50:50.050Z,16.60
2018-06-02T21:53:20.006Z,16.50
2018-06-02T21:55:47.726Z,16.50
2018-06-02T21:58:15.560Z,16.40
2018-06-02T22:00:45.823Z,16.30
2018-06-02T22:03:14.251Z,16.20
2018-06-02T22:05:41.830Z,16.10
2018-06-02T22:08:09.600Z,16.10
2018-06-02T22:10:38.140Z,16.10
2018-06-02T22:13:05.770Z,16.00
2018-06-02T22:15:34.220Z,16.00
2018-06-02T22:18:11.700Z,16.00
2018-06-02T22:20:39.351Z,16.00
2018-06-02T22:23:07.080Z,16.10
2018-06-02T22:25:38.396Z,16.00
2018-06-02T22:28:06.390Z,16.00
2018-06-02T22:30:34.894Z,16.00
2018-06-02T22:33:03.455Z,16.00
2018-06-02T22:35:31.130Z,16.10
2018-06-02T22:38:00.611Z,16.00
2018-06-02T22:40:29.028Z,15.90
2018-06-02T22:42:56.729Z,15.90
2018-06-02T22:45:24.370Z,15.90
2018-06-02T22:47:52.069Z,15.80
2018-06-02T22:50:20.445Z,15.70
2018-06-02T22:52:48.175Z,15.70
2018-06-02T22:55:15.889Z,15.80
2018-06-02T22:57:44.311Z,15.70
2018-06-02T23:00:16.820Z,15.70
2018-06-02T23:02:44.580Z,15.60
2018-06-02T23:05:12.272Z,15.60
2018-06-02T23:07:39.937Z,15.50
2018-06-02T23:10:07.629Z,15.50
2018-06-02T23:12:35.306Z,15.50
2018-06-02T23:15:02.955Z,15.50
2018-06-02T23:17:30.594Z,15.40
2018-06-02T23:19:58.271Z,15.40
2018-06-02T23:22:37.739Z,15.40
2018-06-02T23:25:05.399Z,15.40
2018-06-02T23:27:32.997Z,15.40
2018-06-02T23:30:01.029Z,15.30
2018-06-02T23:32:28.750Z,15.40
2018-06-02T23:34:59.396Z,15.40
2018-06-02T23:37:27.068Z,15.40
2018-06-02T23:39:54.754Z,15.40
2018-06-02T23:42:32.830Z,15.40
2018-06-02T23:45:03.590Z,15.40
2018-06-02T23:47:34.183Z,15.40
2018-06-02T23:50:01.964Z,15.40
2018-06-02T23:52:29.643Z,15.40
2018-06-02T23:55:03.581Z,15.40
2018-06-02T23:57:32.559Z,15.30
